Terminal Aerodrome Forecast
Issued by NWS

Home | Current Version | Previous Version | Graphics & Text | Print | Product List | Glossary On
Versions: 1 2 3 4 5 6 7 8 9 10 11 12 13 14 15 16 17 18 19 20 21
004
FTUS43 KABR 191900 AAA
TAFATY
TAF AMD
KATY 191900Z 1919/2018 09011G22KT P6SM FEW009
     FM192100 11011KT P6SM SCT150
     FM200000 08008KT P6SM VCTS SCT080 BKN120CB
     FM200600 06004KT P6SM BKN045=

USA.gov is the U.S. government's official web portal to all federal, state and local government web resources and services.